sensor_id;sensor_type;location;lat;lon;timestamp;pressure;altitude;pressure_sealevel;temperature;humidity
46714;BME280;32445;51.376;10.874;2024-03-06T00:00:57;99597.25;;;7.76;54.99
46714;BME280;32445;51.376;10.874;2024-03-06T00:05:57;99604.16;;;7.75;54.94
46714;BME280;32445;51.376;10.874;2024-03-06T00:10:58;99614.50;;;7.75;55.08
46714;BME280;32445;51.376;10.874;2024-03-06T00:15:58;99612.78;;;7.74;55.00
46714;BME280;32445;51.376;10.874;2024-03-06T00:20:58;99623.13;;;7.73;55.01
46714;BME280;32445;51.376;10.874;2024-03-06T00:25:59;99621.38;;;7.73;55.22
46714;BME280;32445;51.376;10.874;2024-03-06T00:30:59;99629.16;;;7.73;55.19
46714;BME280;32445;51.376;10.874;2024-03-06T00:36:00;99634.34;;;7.72;55.32
46714;BME280;32445;51.376;10.874;2024-03-06T00:41:00;99640.38;;;7.71;55.00
46714;BME280;32445;51.376;10.874;2024-03-06T00:46:00;99637.81;;;7.69;55.21
46714;BME280;32445;51.376;10.874;2024-03-06T00:51:01;99649.00;;;7.70;55.21
46714;BME280;32445;51.376;10.874;2024-03-06T00:56:02;99653.31;;;7.68;55.07
46714;BME280;32445;51.376;10.874;2024-03-06T01:01:03;99651.63;;;7.68;55.15
46714;BME280;32445;51.376;10.874;2024-03-06T01:06:03;99656.81;;;7.67;55.22
46714;BME280;32445;51.376;10.874;2024-03-06T01:11:04;99652.50;;;7.66;55.28
46714;BME280;32445;51.376;10.874;2024-03-06T01:16:05;99655.09;;;7.66;55.20
46714;BME280;32445;51.376;10.874;2024-03-06T01:21:05;99655.09;;;7.64;55.29
46714;BME280;32445;51.376;10.874;2024-03-06T01:26:06;99655.09;;;7.64;55.16
46714;BME280;32445;51.376;10.874;2024-03-06T01:31:06;99654.25;;;7.62;55.25
46714;BME280;32445;51.376;10.874;2024-03-06T01:36:07;99666.34;;;7.60;55.20
46714;BME280;32445;51.376;10.874;2024-03-06T01:41:07;99662.91;;;7.59;55.25
46714;BME280;32445;51.376;10.874;2024-03-06T01:46:08;99661.19;;;7.58;55.14
46714;BME280;32445;51.376;10.874;2024-03-06T01:51:08;99661.19;;;7.58;55.43
46714;BME280;32445;51.376;10.874;2024-03-06T01:56:09;99665.50;;;7.56;55.28
46714;BME280;32445;51.376;10.874;2024-03-06T02:01:12;99676.75;;;7.55;55.62
46714;BME280;32445;51.376;10.874;2024-03-06T02:06:14;99681.91;;;7.54;55.35
46714;BME280;32445;51.376;10.874;2024-03-06T02:11:15;99681.94;;;7.52;55.27
46714;BME280;32445;51.376;10.874;2024-03-06T02:16:18;99680.25;;;7.50;55.29
46714;BME280;32445;51.376;10.874;2024-03-06T02:21:20;99682.81;;;7.50;55.43
46714;BME280;32445;51.376;10.874;2024-03-06T02:26:21;99690.59;;;7.48;55.36
46714;BME280;32445;51.376;10.874;2024-03-06T02:31:22;99693.19;;;7.47;55.29
46714;BME280;32445;51.376;10.874;2024-03-06T02:36:23;99695.78;;;7.47;55.26
46714;BME280;32445;51.376;10.874;2024-03-06T02:41:23;99694.91;;;7.46;55.65
46714;BME280;32445;51.376;10.874;2024-03-06T02:46:23;99700.97;;;7.45;55.42
46714;BME280;32445;51.376;10.874;2024-03-06T02:51:24;99704.41;;;7.44;55.32
46714;BME280;32445;51.376;10.874;2024-03-06T02:56:24;99710.44;;;7.43;55.34
46714;BME280;32445;51.376;10.874;2024-03-06T03:01:25;99707.84;;;7.43;55.49
46714;BME280;32445;51.376;10.874;2024-03-06T03:06:25;99705.28;;;7.41;55.43
46714;BME280;32445;51.376;10.874;2024-03-06T03:11:26;99716.47;;;7.40;55.57
46714;BME280;32445;51.376;10.874;2024-03-06T03:16:26;99710.47;;;7.38;55.49
46714;BME280;32445;51.376;10.874;2024-03-06T03:21:26;99720.84;;;7.35;55.39
46714;BME280;32445;51.376;10.874;2024-03-06T03:26:27;99722.53;;;7.36;55.51
46714;BME280;32445;51.376;10.874;2024-03-06T03:31:27;99726.84;;;7.36;55.62
46714;BME280;32445;51.376;10.874;2024-03-06T03:36:27;99732.88;;;7.35;55.39
46714;BME280;32445;51.376;10.874;2024-03-06T03:41:28;99734.63;;;7.34;55.36
46714;BME280;32445;51.376;10.874;2024-03-06T03:46:28;99741.53;;;7.32;55.59
46714;BME280;32445;51.376;10.874;2024-03-06T03:51:29;99751.88;;;7.32;55.44
46714;BME280;32445;51.376;10.874;2024-03-06T03:56:29;99751.00;;;7.32;55.63
46714;BME280;32445;51.376;10.874;2024-03-06T04:01:30;99752.75;;;7.30;55.37
46714;BME280;32445;51.376;10.874;2024-03-06T04:06:30;99755.34;;;7.30;55.48
46714;BME280;32445;51.376;10.874;2024-03-06T04:11:31;99757.94;;;7.28;55.41
46714;BME280;32445;51.376;10.874;2024-03-06T04:16:34;99753.63;;;7.27;55.67
46714;BME280;32445;51.376;10.874;2024-03-06T04:21:40;99759.66;;;7.26;55.40
46714;BME280;32445;51.376;10.874;2024-03-06T04:26:41;99768.28;;;7.25;55.52
46714;BME280;32445;51.376;10.874;2024-03-06T04:31:41;99763.97;;;7.24;55.56
46714;BME280;32445;51.376;10.874;2024-03-06T04:36:41;99766.56;;;7.24;55.69
46714;BME280;32445;51.376;10.874;2024-03-06T04:41:42;99770.84;;;7.23;55.64
46714;BME280;32445;51.376;10.874;2024-03-06T04:46:42;99771.75;;;7.22;55.43
46714;BME280;32445;51.376;10.874;2024-03-06T04:51:43;99777.78;;;7.20;55.53
46714;BME280;32445;51.376;10.874;2024-03-06T04:56:43;99771.75;;;7.18;55.67
46714;BME280;32445;51.376;10.874;2024-03-06T05:01:43;99786.38;;;7.19;55.63
46714;BME280;32445;51.376;10.874;2024-03-06T05:06:44;99786.41;;;7.17;55.66
46714;BME280;32445;51.376;10.874;2024-03-06T05:11:44;99795.88;;;7.17;55.64
46714;BME280;32445;51.376;10.874;2024-03-06T05:16:45;99808.81;;;7.15;55.79
46714;BME280;32445;51.376;10.874;2024-03-06T05:21:45;99797.63;;;7.13;55.59
46714;BME280;32445;51.376;10.874;2024-03-06T05:26:45;99804.50;;;7.13;55.74
46714;BME280;32445;51.376;10.874;2024-03-06T05:31:46;99819.13;;;7.10;55.69
46714;BME280;32445;51.376;10.874;2024-03-06T05:36:46;99824.31;;;7.10;55.67
46714;BME280;32445;51.376;10.874;2024-03-06T05:41:47;99823.47;;;7.08;55.65
46714;BME280;32445;51.376;10.874;2024-03-06T05:46:48;99826.91;;;7.07;55.63
46714;BME280;32445;51.376;10.874;2024-03-06T05:51:48;99832.94;;;7.05;55.58
46714;BME280;32445;51.376;10.874;2024-03-06T05:56:50;99832.94;;;7.05;55.53
46714;BME280;32445;51.376;10.874;2024-03-06T06:01:51;99834.69;;;7.04;55.68
46714;BME280;32445;51.376;10.874;2024-03-06T06:06:52;99854.47;;;7.04;55.62
46714;BME280;32445;51.376;10.874;2024-03-06T06:11:52;99856.19;;;7.03;55.49
46714;BME280;32445;51.376;10.874;2024-03-06T06:16:54;99857.06;;;7.02;55.59
46714;BME280;32445;51.376;10.874;2024-03-06T06:22:03;99858.78;;;7.02;55.76
46714;BME280;32445;51.376;10.874;2024-03-06T06:27:03;99873.41;;;7.03;55.62
46714;BME280;32445;51.376;10.874;2024-03-06T06:32:04;99878.56;;;7.03;55.79
46714;BME280;32445;51.376;10.874;2024-03-06T06:37:05;99883.72;;;7.03;55.68
46714;BME280;32445;51.376;10.874;2024-03-06T06:42:05;99891.47;;;7.03;55.44
46714;BME280;32445;51.376;10.874;2024-03-06T06:47:05;99900.06;;;7.03;55.63
46714;BME280;32445;51.376;10.874;2024-03-06T06:52:07;99906.09;;;7.05;55.61
46714;BME280;32445;51.376;10.874;2024-03-06T06:57:07;99909.53;;;7.06;55.52
46714;BME280;32445;51.376;10.874;2024-03-06T07:02:08;99928.47;;;7.06;55.60
46714;BME280;32445;51.376;10.874;2024-03-06T07:07:09;99927.59;;;7.07;55.66
46714;BME280;32445;51.376;10.874;2024-03-06T07:12:09;99931.88;;;7.10;55.19
46714;BME280;32445;51.376;10.874;2024-03-06T07:17:10;99941.34;;;7.09;55.56
46714;BME280;32445;51.376;10.874;2024-03-06T07:22:10;99953.38;;;7.14;55.36
46714;BME280;32445;51.376;10.874;2024-03-06T07:27:10;99953.38;;;7.17;55.32
46714;BME280;32445;51.376;10.874;2024-03-06T07:32:11;99955.09;;;7.15;55.46
46714;BME280;32445;51.376;10.874;2024-03-06T07:37:12;99956.78;;;7.17;55.46
46714;BME280;32445;51.376;10.874;2024-03-06T07:42:13;99970.53;;;7.24;55.43
46714;BME280;32445;51.376;10.874;2024-03-06T07:47:15;99963.63;;;7.27;55.15
46714;BME280;32445;51.376;10.874;2024-03-06T07:52:16;99967.03;;;7.37;55.18
46714;BME280;32445;51.376;10.874;2024-03-06T07:57:16;99974.75;;;7.42;55.00
46714;BME280;32445;51.376;10.874;2024-03-06T08:02:18;99980.75;;;7.47;55.10
46714;BME280;32445;51.376;10.874;2024-03-06T08:07:18;99990.19;;;7.53;55.06
46714;BME280;32445;51.376;10.874;2024-03-06T08:12:18;99994.41;;;7.65;54.90
46714;BME280;32445;51.376;10.874;2024-03-06T08:17:19;99996.16;;;7.64;54.88
46714;BME280;32445;51.376;10.874;2024-03-06T08:22:19;99991.91;;;7.54;55.21
46714;BME280;32445;51.376;10.874;2024-03-06T08:27:19;100003.03;;;7.67;55.25
46714;BME280;32445;51.376;10.874;2024-03-06T08:32:20;100007.31;;;7.72;55.35
46714;BME280;32445;51.376;10.874;2024-03-06T08:37:21;100002.13;;;7.74;55.36
46714;BME280;32445;51.376;10.874;2024-03-06T08:42:21;100015.06;;;7.72;55.33
46714;BME280;32445;51.376;10.874;2024-03-06T08:47:21;100019.31;;;7.75;55.44
46714;BME280;32445;51.376;10.874;2024-03-06T08:52:22;100020.97;;;7.84;55.33
46714;BME280;32445;51.376;10.874;2024-03-06T08:57:23;100020.13;;;7.86;55.51
46714;BME280;32445;51.376;10.874;2024-03-06T09:02:24;100023.47;;;7.97;55.49
46714;BME280;32445;51.376;10.874;2024-03-06T09:07:25;100022.63;;;8.00;55.33
46714;BME280;32445;51.376;10.874;2024-03-06T09:12:26;100029.53;;;8.00;55.47
46714;BME280;32445;51.376;10.874;2024-03-06T09:17:27;100029.41;;;8.10;55.23
46714;BME280;32445;51.376;10.874;2024-03-06T09:22:27;100035.44;;;8.16;55.19
46714;BME280;32445;51.376;10.874;2024-03-06T09:27:28;100051.00;;;8.06;55.81
46714;BME280;32445;51.376;10.874;2024-03-06T09:32:28;100044.03;;;8.14;55.76
46714;BME280;32445;51.376;10.874;2024-03-06T09:37:28;100051.78;;;8.18;55.71
46714;BME280;32445;51.376;10.874;2024-03-06T09:42:29;100047.34;;;8.32;55.60
46714;BME280;32445;51.376;10.874;2024-03-06T09:47:31;100050.66;;;8.56;55.54
46714;BME280;32445;51.376;10.874;2024-03-06T09:52:33;100057.22;;;8.88;55.01
46714;BME280;32445;51.376;10.874;2024-03-06T09:57:35;100068.31;;;9.02;55.28
46714;BME280;32445;51.376;10.874;2024-03-06T10:02:45;100057.56;;;9.36;54.47
46714;BME280;32445;51.376;10.874;2024-03-06T10:07:46;100069.44;;;9.52;54.65
46714;BME280;32445;51.376;10.874;2024-03-06T10:12:47;100068.19;;;9.81;54.40
46714;BME280;32445;51.376;10.874;2024-03-06T10:17:48;100064.13;;;10.22;53.93
46714;BME280;32445;51.376;10.874;2024-03-06T10:22:53;100074.97;;;10.49;53.64
46714;BME280;32445;51.376;10.874;2024-03-06T10:28:11;100073.47;;;10.87;53.27
46714;BME280;32445;51.376;10.874;2024-03-06T10:33:12;100078.91;;;11.20;53.11
46714;BME280;32445;51.376;10.874;2024-03-06T10:38:14;100080.91;;;11.50;53.15
46714;BME280;32445;51.376;10.874;2024-03-06T10:43:15;100082.19;;;11.72;53.06
46714;BME280;32445;51.376;10.874;2024-03-06T10:48:17;100079.13;;;11.94;52.74
46714;BME280;32445;51.376;10.874;2024-03-06T10:53:18;100081.59;;;12.36;52.44
46714;BME280;32445;51.376;10.874;2024-03-06T10:58:20;100083.25;;;12.75;52.24
46714;BME280;32445;51.376;10.874;2024-03-06T11:03:20;100076.94;;;13.16;52.04
46714;BME280;32445;51.376;10.874;2024-03-06T11:08:21;100085.56;;;13.52;51.59
46714;BME280;32445;51.376;10.874;2024-03-06T11:13:23;100077.47;;;13.89;51.95
46714;BME280;32445;51.376;10.874;2024-03-06T11:23:32;100073.16;;;14.16;52.08
46714;BME280;32445;51.376;10.874;2024-03-06T11:28:34;100084.56;;;14.41;52.12
46714;BME280;32445;51.376;10.874;2024-03-06T11:33:39;100088.41;;;14.56;52.29
46714;BME280;32445;51.376;10.874;2024-03-06T11:38:40;100093.13;;;14.73;52.52
46714;BME280;32445;51.376;10.874;2024-03-06T11:43:44;100082.78;;;14.69;52.72
46714;BME280;32445;51.376;10.874;2024-03-06T11:48:52;100076.69;;;14.69;52.71
46714;BME280;32445;51.376;10.874;2024-03-06T11:53:53;100073.38;;;14.64;53.20
46714;BME280;32445;51.376;10.874;2024-03-06T11:58:57;100082.03;;;14.66;53.51
46714;BME280;32445;51.376;10.874;2024-03-06T12:03:57;100078.88;;;14.81;53.21
46714;BME280;32445;51.376;10.874;2024-03-06T12:08:58;100076.06;;;14.87;53.08
46714;BME280;32445;51.376;10.874;2024-03-06T12:13:58;100071.56;;;14.91;53.19
46714;BME280;32445;51.376;10.874;2024-03-06T12:18:59;100078.53;;;14.92;53.26
46714;BME280;32445;51.376;10.874;2024-03-06T12:24:07;100075.97;;;14.91;53.21
46714;BME280;32445;51.376;10.874;2024-03-06T12:29:09;100074.25;;;14.90;53.46
46714;BME280;32445;51.376;10.874;2024-03-06T12:34:14;100072.53;;;14.88;53.75
46714;BME280;32445;51.376;10.874;2024-03-06T12:39:18;100077.50;;;14.96;53.35
46714;BME280;32445;51.376;10.874;2024-03-06T12:44:23;100070.09;;;15.09;53.25
46714;BME280;32445;51.376;10.874;2024-03-06T12:49:23;100075.91;;;15.17;52.99
46714;BME280;32445;51.376;10.874;2024-03-06T12:54:24;100066.91;;;15.25;53.10
46714;BME280;32445;51.376;10.874;2024-03-06T12:59:24;100065.25;;;15.22;53.05
46714;BME280;32445;51.376;10.874;2024-03-06T13:04:34;100060.63;;;15.30;52.78
46714;BME280;32445;51.376;10.874;2024-03-06T13:09:34;100059.75;;;15.53;52.62
46714;BME280;32445;51.376;10.874;2024-03-06T13:14:34;100057.09;;;15.77;52.34
46714;BME280;32445;51.376;10.874;2024-03-06T13:19:35;100058.91;;;15.99;52.21
46714;BME280;32445;51.376;10.874;2024-03-06T13:24:35;100060.84;;;16.16;52.20
46714;BME280;32445;51.376;10.874;2024-03-06T13:29:36;100061.47;;;16.22;52.17
46714;BME280;32445;51.376;10.874;2024-03-06T13:34:36;100059.94;;;16.17;52.81
46714;BME280;32445;51.376;10.874;2024-03-06T13:39:37;100050.78;;;16.27;52.47
46714;BME280;32445;51.376;10.874;2024-03-06T13:44:39;100053.09;;;16.35;52.67
46714;BME280;32445;51.376;10.874;2024-03-06T13:49:40;100055.59;;;16.38;52.57
46714;BME280;32445;51.376;10.874;2024-03-06T13:54:42;100050.56;;;16.54;52.56
46714;BME280;32445;51.376;10.874;2024-03-06T13:59:42;100061.69;;;16.59;52.68
46714;BME280;32445;51.376;10.874;2024-03-06T14:04:43;100058.16;;;16.60;52.98
46714;BME280;32445;51.376;10.874;2024-03-06T14:09:44;100065.81;;;16.65;53.22
46714;BME280;32445;51.376;10.874;2024-03-06T14:14:44;100064.13;;;16.64;52.92
46714;BME280;32445;51.376;10.874;2024-03-06T14:19:47;100066.81;;;16.62;52.91
46714;BME280;32445;51.376;10.874;2024-03-06T14:24:48;100066.09;;;16.58;53.07
46714;BME280;32445;51.376;10.874;2024-03-06T14:29:48;100071.47;;;16.55;52.79
46714;BME280;32445;51.376;10.874;2024-03-06T14:34:49;100070.84;;;16.49;52.83
46714;BME280;32445;51.376;10.874;2024-03-06T14:39:49;100078.25;;;16.39;53.07
46714;BME280;32445;51.376;10.874;2024-03-06T14:44:51;100079.47;;;16.30;52.79
46714;BME280;32445;51.376;10.874;2024-03-06T14:49:51;100075.34;;;16.24;52.82
46714;BME280;32445;51.376;10.874;2024-03-06T14:54:52;100083.56;;;16.15;52.89
46714;BME280;32445;51.376;10.874;2024-03-06T14:59:52;100078.75;;;16.04;52.89
46714;BME280;32445;51.376;10.874;2024-03-06T15:04:53;100082.59;;;15.96;52.55
46714;BME280;32445;51.376;10.874;2024-03-06T15:09:53;100084.63;;;15.87;52.56
46714;BME280;32445;51.376;10.874;2024-03-06T15:14:53;100088.00;;;15.67;52.78
46714;BME280;32445;51.376;10.874;2024-03-06T15:19:57;100089.13;;;15.60;52.57
46714;BME280;32445;51.376;10.874;2024-03-06T15:24:57;100102.63;;;15.49;52.52
46714;BME280;32445;51.376;10.874;2024-03-06T15:29:57;100105.63;;;15.38;52.26
46714;BME280;32445;51.376;10.874;2024-03-06T15:34:58;100104.31;;;15.27;52.25
46714;BME280;32445;51.376;10.874;2024-03-06T15:39:59;100102.13;;;15.14;52.20
46714;BME280;32445;51.376;10.874;2024-03-06T15:44:59;100117.41;;;15.01;52.27
46714;BME280;32445;51.376;10.874;2024-03-06T15:49:59;100107.31;;;14.91;51.84
46714;BME280;32445;51.376;10.874;2024-03-06T15:55:00;100113.91;;;14.76;52.05
46714;BME280;32445;51.376;10.874;2024-03-06T16:00:01;100117.06;;;14.59;52.09
46714;BME280;32445;51.376;10.874;2024-03-06T16:05:01;100122.84;;;14.42;52.02
46714;BME280;32445;51.376;10.874;2024-03-06T16:10:02;100130.28;;;14.27;51.99
46714;BME280;32445;51.376;10.874;2024-03-06T16:15:03;100133.44;;;14.09;51.82
46714;BME280;32445;51.376;10.874;2024-03-06T16:20:04;100132.19;;;13.92;51.67
46714;BME280;32445;51.376;10.874;2024-03-06T16:25:05;100146.56;;;13.77;51.94
46714;BME280;32445;51.376;10.874;2024-03-06T16:30:06;100151.50;;;13.55;51.95
46714;BME280;32445;51.376;10.874;2024-03-06T16:35:07;100151.97;;;13.40;51.86
46714;BME280;32445;51.376;10.874;2024-03-06T16:40:10;100162.75;;;13.24;51.88
46714;BME280;32445;51.376;10.874;2024-03-06T16:45:11;100156.34;;;13.03;51.95
46714;BME280;32445;51.376;10.874;2024-03-06T16:50:12;100163.66;;;12.89;51.88
46714;BME280;32445;51.376;10.874;2024-03-06T16:55:12;100175.38;;;12.72;51.96
46714;BME280;32445;51.376;10.874;2024-03-06T17:00:13;100176.66;;;12.54;51.84
46714;BME280;32445;51.376;10.874;2024-03-06T17:05:14;100178.81;;;12.37;51.89
46714;BME280;32445;51.376;10.874;2024-03-06T17:10:14;100178.38;;;12.16;51.81
46714;BME280;32445;51.376;10.874;2024-03-06T17:15:15;100186.59;;;11.96;51.90
46714;BME280;32445;51.376;10.874;2024-03-06T17:20:16;100193.03;;;11.78;51.72
46714;BME280;32445;51.376;10.874;2024-03-06T17:25:17;100196.88;;;11.58;51.82
46714;BME280;32445;51.376;10.874;2024-03-06T17:30:18;100207.59;;;11.40;51.78
46714;BME280;32445;51.376;10.874;2024-03-06T17:35:19;100213.13;;;11.21;51.76
46714;BME280;32445;51.376;10.874;2024-03-06T17:40:19;100217.78;;;11.02;51.80
46714;BME280;32445;51.376;10.874;2024-03-06T17:45:19;100232.81;;;10.85;51.96
46714;BME280;32445;51.376;10.874;2024-03-06T17:50:20;100229.59;;;10.66;51.90
46714;BME280;32445;51.376;10.874;2024-03-06T17:55:20;100232.50;;;10.46;51.88
46714;BME280;32445;51.376;10.874;2024-03-06T18:00:20;100235.31;;;10.29;51.88
46714;BME280;32445;51.376;10.874;2024-03-06T18:05:22;100246.75;;;10.11;51.79
46714;BME280;32445;51.376;10.874;2024-03-06T18:10:23;100246.97;;;9.94;51.93
46714;BME280;32445;51.376;10.874;2024-03-06T18:15:23;100254.91;;;9.77;51.76
46714;BME280;32445;51.376;10.874;2024-03-06T18:20:24;100246.47;;;9.59;51.94
46714;BME280;32445;51.376;10.874;2024-03-06T18:25:26;100247.50;;;9.43;51.96
46714;BME280;32445;51.376;10.874;2024-03-06T18:30:28;100242.44;;;9.29;52.00
46714;BME280;32445;51.376;10.874;2024-03-06T18:35:29;100258.06;;;9.18;51.87
46714;BME280;32445;51.376;10.874;2024-03-06T18:40:29;100258.19;;;9.07;51.92
46714;BME280;32445;51.376;10.874;2024-03-06T18:45:30;100263.41;;;8.98;52.06
46714;BME280;32445;51.376;10.874;2024-03-06T18:50:30;100266.09;;;8.87;51.89
46714;BME280;32445;51.376;10.874;2024-03-06T18:55:31;100264.41;;;8.75;51.95
46714;BME280;32445;51.376;10.874;2024-03-06T19:00:31;100259.34;;;8.63;51.96
46714;BME280;32445;51.376;10.874;2024-03-06T19:05:34;100282.69;;;8.51;52.14
46714;BME280;32445;51.376;10.874;2024-03-06T19:10:34;100278.41;;;8.37;51.95
46714;BME280;32445;51.376;10.874;2024-03-06T19:15:35;100282.78;;;8.27;51.91
46714;BME280;32445;51.376;10.874;2024-03-06T19:20:38;100292.28;;;8.16;52.00
46714;BME280;32445;51.376;10.874;2024-03-06T19:25:38;100300.09;;;8.07;52.12
46714;BME280;32445;51.376;10.874;2024-03-06T19:30:39;100308.75;;;7.98;52.09
46714;BME280;32445;51.376;10.874;2024-03-06T19:35:40;100306.16;;;7.92;52.07
46714;BME280;32445;51.376;10.874;2024-03-06T19:40:41;100305.31;;;7.87;51.96
46714;BME280;32445;51.376;10.874;2024-03-06T19:45:42;100301.03;;;7.81;51.86
46714;BME280;32445;51.376;10.874;2024-03-06T19:50:43;100303.59;;;7.76;51.78
46714;BME280;32445;51.376;10.874;2024-03-06T19:55:46;100301.88;;;7.69;51.84
46714;BME280;32445;51.376;10.874;2024-03-06T20:00:48;100303.66;;;7.59;51.92
46714;BME280;32445;51.376;10.874;2024-03-06T20:05:48;100308.81;;;7.52;51.75
46714;BME280;32445;51.376;10.874;2024-03-06T20:10:49;100313.13;;;7.47;51.81
46714;BME280;32445;51.376;10.874;2024-03-06T20:15:49;100311.41;;;7.42;52.00
46714;BME280;32445;51.376;10.874;2024-03-06T20:20:50;100306.22;;;7.36;51.80
46714;BME280;32445;51.376;10.874;2024-03-06T20:25:50;100313.13;;;7.26;51.79
46714;BME280;32445;51.376;10.874;2024-03-06T20:30:50;100311.38;;;7.18;51.92
46714;BME280;32445;51.376;10.874;2024-03-06T20:35:52;100310.53;;;7.08;51.98
46714;BME280;32445;51.376;10.874;2024-03-06T20:40:53;100312.22;;;7.03;52.01
46714;BME280;32445;51.376;10.874;2024-03-06T20:45:53;100309.66;;;6.97;51.92
46714;BME280;32445;51.376;10.874;2024-03-06T20:50:54;100315.66;;;6.92;51.92
46714;BME280;32445;51.376;10.874;2024-03-06T20:55:55;100315.66;;;6.89;51.90
46714;BME280;32445;51.376;10.874;2024-03-06T21:00:55;100325.94;;;6.85;52.01
46714;BME280;32445;51.376;10.874;2024-03-06T21:05:56;100326.84;;;6.81;51.94
46714;BME280;32445;51.376;10.874;2024-03-06T21:10:56;100320.78;;;6.77;51.76
46714;BME280;32445;51.376;10.874;2024-03-06T21:15:59;100320.78;;;6.72;51.83
46714;BME280;32445;51.376;10.874;2024-03-06T21:21:00;100319.91;;;6.67;51.77
46714;BME280;32445;51.376;10.874;2024-03-06T21:26:01;100324.19;;;6.64;51.91
46714;BME280;32445;51.376;10.874;2024-03-06T21:31:02;100322.47;;;6.58;51.85
46714;BME280;32445;51.376;10.874;2024-03-06T21:36:04;100314.69;;;6.50;51.78
46714;BME280;32445;51.376;10.874;2024-03-06T21:41:04;100317.25;;;6.43;52.02
46714;BME280;32445;51.376;10.874;2024-03-06T21:46:04;100332.69;;;6.33;51.88
46714;BME280;32445;51.376;10.874;2024-03-06T21:51:05;100320.59;;;6.23;52.02
46714;BME280;32445;51.376;10.874;2024-03-06T21:56:07;100326.56;;;6.16;51.98
46714;BME280;32445;51.376;10.874;2024-03-06T22:01:09;100326.53;;;6.06;51.82
46714;BME280;32445;51.376;10.874;2024-03-06T22:06:13;100325.63;;;6.00;51.94
46714;BME280;32445;51.376;10.874;2024-03-06T22:11:14;100325.56;;;5.92;52.07
46714;BME280;32445;51.376;10.874;2024-03-06T22:16:14;100330.63;;;5.83;52.08
46714;BME280;32445;51.376;10.874;2024-03-06T22:21:15;100321.13;;;5.72;52.17
46714;BME280;32445;51.376;10.874;2024-03-06T22:26:15;100330.53;;;5.66;52.09
46714;BME280;32445;51.376;10.874;2024-03-06T22:31:15;100319.34;;;5.59;51.99
46714;BME280;32445;51.376;10.874;2024-03-06T22:36:17;100333.03;;;5.55;51.99
46714;BME280;32445;51.376;10.874;2024-03-06T22:41:18;100320.13;;;5.50;52.05
46714;BME280;32445;51.376;10.874;2024-03-06T22:46:18;100318.38;;;5.46;51.85
46714;BME280;32445;51.376;10.874;2024-03-06T22:51:20;100324.34;;;5.42;51.84
46714;BME280;32445;51.376;10.874;2024-03-06T22:56:22;100323.44;;;5.38;52.07
46714;BME280;32445;51.376;10.874;2024-03-06T23:01:22;100322.56;;;5.33;51.79
46714;BME280;32445;51.376;10.874;2024-03-06T23:06:22;100323.34;;;5.26;52.00
46714;BME280;32445;51.376;10.874;2024-03-06T23:11:23;100319.03;;;5.24;51.92
46714;BME280;32445;51.376;10.874;2024-03-06T23:16:23;100319.03;;;5.22;51.83
46714;BME280;32445;51.376;10.874;2024-03-06T23:21:24;100321.63;;;5.24;51.73
46714;BME280;32445;51.376;10.874;2024-03-06T23:26:27;100319.84;;;5.19;51.83
46714;BME280;32445;51.376;10.874;2024-03-06T23:31:28;100317.25;;;5.15;51.91
46714;BME280;32445;51.376;10.874;2024-03-06T23:36:31;100301.69;;;5.04;52.06
46714;BME280;32445;51.376;10.874;2024-03-06T23:41:32;100305.16;;;5.03;52.06
46714;BME280;32445;51.376;10.874;2024-03-06T23:46:33;100302.56;;;5.03;52.03
46714;BME280;32445;51.376;10.874;2024-03-06T23:51:34;100297.44;;;5.05;51.80
46714;BME280;32445;51.376;10.874;2024-03-06T23:56:34;100303.44;;;5.05;51.86
